THY6317 EFHK-ENGM
Flight info
| Callsign | THY6317 |
|---|---|
| Flight time | 1h 9m |
| Altitude | 38000 |
| Route | ADIVO Y365 POGOK DCT EBURI N623 ESEBA |
| Aircraft | B77L/H-SDE1E2E3FGHIJ2J3J4J5M1RWXY/LB1D1 |
Departure
| Time | 2026-05-07 17:56 |
|---|---|
| Airport | Helsinki Vantaa Airport (EFHK) |
Arrival
| Time | 2026-05-07 19:06 |
|---|---|
| Airport | Oslo-Gardermoen International Airport (ENGM) |
| Time | Latitude | Longitude | Altitude | Speed | Heading |
|---|---|---|---|---|---|
| 2026-05-07 17:28 | 60.31187 | 24.97548 | 166 ft | 0 kts | 242° |
| 2026-05-07 17:38 | 60.31196 | 24.97582 | 166 ft | 4 kts | 241° |
| 2026-05-07 17:38 | 60.31207 | 24.97623 | 166 ft | 4 kts | 233° |
| 2026-05-07 17:38 | 60.31226 | 24.97655 | 166 ft | 4 kts | 191° |
| 2026-05-07 17:38 | 60.31251 | 24.97651 | 166 ft | 3 kts | 154° |
| 2026-05-07 17:39 | 60.31253 | 24.97649 | 166 ft | 1 kts | 153° |
| 2026-05-07 17:44 | 60.31244 | 24.97658 | 166 ft | 6 kts | 153° |
| 2026-05-07 17:44 | 60.31179 | 24.97724 | 166 ft | 12 kts | 151° |
| 2026-05-07 17:44 | 60.31156 | 24.97822 | 166 ft | 6 kts | 82° |
| 2026-05-07 17:45 | 60.31176 | 24.97906 | 166 ft | 9 kts | 57° |
| 2026-05-07 17:45 | 60.31230 | 24.97959 | 166 ft | 10 kts | 347° |
| 2026-05-07 17:45 | 60.31293 | 24.97898 | 166 ft | 10 kts | 332° |
| 2026-05-07 17:45 | 60.31314 | 24.97876 | 166 ft | 0 kts | 332° |
| 2026-05-07 17:47 | 60.31316 | 24.97874 | 166 ft | 2 kts | 332° |
| 2026-05-07 17:47 | 60.31343 | 24.97846 | 166 ft | 5 kts | 333° |
| 2026-05-07 17:48 | 60.31378 | 24.97809 | 165 ft | 6 kts | 333° |
| 2026-05-07 17:48 | 60.31407 | 24.97779 | 165 ft | 9 kts | 332° |
| 2026-05-07 17:48 | 60.31498 | 24.97684 | 165 ft | 16 kts | 333° |
| 2026-05-07 17:48 | 60.31595 | 24.97584 | 165 ft | 16 kts | 333° |
| 2026-05-07 17:49 | 60.31695 | 24.97481 | 165 ft | 18 kts | 333° |
| 2026-05-07 17:49 | 60.31816 | 24.97356 | 165 ft | 22 kts | 333° |
| 2026-05-07 17:49 | 60.31925 | 24.97243 | 165 ft | 18 kts | 333° |
| 2026-05-07 17:49 | 60.32036 | 24.97129 | 165 ft | 18 kts | 333° |
| 2026-05-07 17:50 | 60.32147 | 24.97014 | 165 ft | 18 kts | 333° |
| 2026-05-07 17:50 | 60.32257 | 24.96899 | 165 ft | 18 kts | 333° |
| 2026-05-07 17:50 | 60.32341 | 24.96812 | 166 ft | 12 kts | 333° |
| 2026-05-07 17:50 | 60.32419 | 24.96733 | 167 ft | 12 kts | 333° |
| 2026-05-07 17:51 | 60.32497 | 24.96650 | 167 ft | 15 kts | 331° |
| 2026-05-07 17:51 | 60.32595 | 24.96539 | 166 ft | 16 kts | 330° |
| 2026-05-07 17:51 | 60.32695 | 24.96424 | 166 ft | 16 kts | 330° |
| 2026-05-07 17:51 | 60.32794 | 24.96309 | 166 ft | 16 kts | 330° |
| 2026-05-07 17:52 | 60.32889 | 24.96198 | 166 ft | 15 kts | 324° |
| 2026-05-07 17:52 | 60.32904 | 24.96039 | 166 ft | 10 kts | 262° |
| 2026-05-07 17:52 | 60.32942 | 24.95923 | 166 ft | 11 kts | 328° |
| 2026-05-07 17:52 | 60.33021 | 24.95829 | 166 ft | 14 kts | 329° |
| 2026-05-07 17:53 | 60.33103 | 24.95714 | 166 ft | 14 kts | 317° |
| 2026-05-07 17:53 | 60.33176 | 24.95577 | 166 ft | 14 kts | 315° |
| 2026-05-07 17:53 | 60.33199 | 24.95389 | 166 ft | 15 kts | 245° |
| 2026-05-07 17:53 | 60.33134 | 24.95221 | 166 ft | 15 kts | 231° |
| 2026-05-07 17:54 | 60.33108 | 24.95021 | 166 ft | 15 kts | 273° |
| 2026-05-07 17:54 | 60.33113 | 24.94807 | 166 ft | 15 kts | 272° |
| 2026-05-07 17:54 | 60.33119 | 24.94593 | 169 ft | 15 kts | 273° |
| 2026-05-07 17:54 | 60.33114 | 24.94382 | 177 ft | 15 kts | 244° |
| 2026-05-07 17:55 | 60.33073 | 24.94295 | 180 ft | 0 kts | 227° |
| 2026-05-07 17:55 | 60.33061 | 24.94269 | 180 ft | 13 kts | 227° |
| 2026-05-07 17:55 | 60.32875 | 24.93864 | 180 ft | 78 kts | 227° |
| 2026-05-07 17:55 | 60.32330 | 24.92663 | 165 ft | 151 kts | 226° |
| 2026-05-07 17:56 | 60.31563 | 24.90894 | 536 ft | 175 kts | 228° |
| 2026-05-07 17:56 | 60.30759 | 24.89063 | 1413 ft | 169 kts | 227° |
| 2026-05-07 17:56 | 60.29986 | 24.87316 | 2309 ft | 164 kts | 242° |
| 2026-05-07 17:56 | 60.29832 | 24.84994 | 2743 ft | 185 kts | 289° |
| 2026-05-07 17:57 | 60.30460 | 24.82553 | 3027 ft | 211 kts | 298° |
| 2026-05-07 17:57 | 60.30925 | 24.80721 | 3254 ft | 230 kts | 296° |
| 2026-05-07 17:57 | 60.31822 | 24.76641 | 4152 ft | 246 kts | 285° |
| 2026-05-07 17:57 | 60.31831 | 24.73181 | 4872 ft | 257 kts | 265° |
| 2026-05-07 17:58 | 60.31662 | 24.69499 | 5780 ft | 261 kts | 269° |
| 2026-05-07 17:58 | 60.31560 | 24.65867 | 6819 ft | 263 kts | 269° |
| 2026-05-07 17:58 | 60.31468 | 24.62166 | 7836 ft | 265 kts | 269° |
| 2026-05-07 17:58 | 60.31377 | 24.58442 | 8863 ft | 267 kts | 268° |
| 2026-05-07 17:59 | 60.31286 | 24.54680 | 9841 ft | 270 kts | 268° |
| 2026-05-07 17:59 | 60.31193 | 24.50858 | 10680 ft | 278 kts | 268° |
| 2026-05-07 17:59 | 60.31093 | 24.46789 | 11036 ft | 305 kts | 268° |
| 2026-05-07 17:59 | 60.30981 | 24.42284 | 11303 ft | 335 kts | 268° |
| 2026-05-07 18:00 | 60.30860 | 24.37502 | 12140 ft | 344 kts | 268° |
| 2026-05-07 18:00 | 60.30736 | 24.32682 | 13452 ft | 344 kts | 267° |
| 2026-05-07 18:00 | 60.30610 | 24.27854 | 14641 ft | 345 kts | 267° |
| 2026-05-07 18:00 | 60.30482 | 24.23001 | 15696 ft | 348 kts | 267° |
| 2026-05-07 18:01 | 60.30351 | 24.18084 | 16665 ft | 354 kts | 267° |
| 2026-05-07 18:01 | 60.30217 | 24.13111 | 17768 ft | 355 kts | 267° |
| 2026-05-07 18:01 | 60.30082 | 24.08139 | 18868 ft | 355 kts | 267° |
| 2026-05-07 18:01 | 60.29943 | 24.03138 | 19742 ft | 359 kts | 267° |
| 2026-05-07 18:02 | 60.29428 | 23.93019 | 21406 ft | 367 kts | 260° |
| 2026-05-07 18:02 | 60.28883 | 23.87963 | 22262 ft | 371 kts | 258° |
| 2026-05-07 18:02 | 60.28281 | 23.82890 | 23134 ft | 374 kts | 257° |
| 2026-05-07 18:03 | 60.27670 | 23.77771 | 23905 ft | 377 kts | 257° |
| 2026-05-07 18:03 | 60.27071 | 23.72667 | 24546 ft | 382 kts | 258° |
| 2026-05-07 18:03 | 60.26468 | 23.67430 | 25172 ft | 386 kts | 258° |
| 2026-05-07 18:03 | 60.25865 | 23.62118 | 25804 ft | 391 kts | 258° |
| 2026-05-07 18:04 | 60.25263 | 23.56758 | 26436 ft | 395 kts | 258° |
| 2026-05-07 18:04 | 60.24655 | 23.51335 | 27046 ft | 399 kts | 258° |
| 2026-05-07 18:04 | 60.24041 | 23.45862 | 27662 ft | 403 kts | 258° |
| 2026-05-07 18:04 | 60.23420 | 23.40342 | 28246 ft | 407 kts | 258° |
| 2026-05-07 18:05 | 60.22790 | 23.34752 | 28824 ft | 411 kts | 258° |
| 2026-05-07 18:05 | 60.22151 | 23.29119 | 29445 ft | 414 kts | 258° |
| 2026-05-07 18:05 | 60.21505 | 23.23446 | 29989 ft | 418 kts | 258° |
| 2026-05-07 18:05 | 60.20852 | 23.17728 | 30396 ft | 422 kts | 258° |
| 2026-05-07 18:06 | 60.20190 | 23.11956 | 30739 ft | 425 kts | 258° |
| 2026-05-07 18:06 | 60.19519 | 23.06141 | 31047 ft | 430 kts | 258° |
| 2026-05-07 18:06 | 60.18840 | 23.00280 | 31506 ft | 430 kts | 258° |
| 2026-05-07 18:06 | 60.18159 | 22.94431 | 32055 ft | 430 kts | 258° |
| 2026-05-07 18:07 | 60.17476 | 22.88581 | 32566 ft | 430 kts | 258° |
| 2026-05-07 18:07 | 60.16791 | 22.82737 | 33033 ft | 431 kts | 258° |
| 2026-05-07 18:07 | 60.16101 | 22.76875 | 33505 ft | 431 kts | 258° |
| 2026-05-07 18:07 | 60.15409 | 22.71010 | 33966 ft | 432 kts | 258° |
| 2026-05-07 18:08 | 60.14713 | 22.65142 | 34377 ft | 432 kts | 258° |
| 2026-05-07 18:08 | 60.14012 | 22.59264 | 34739 ft | 433 kts | 257° |
| 2026-05-07 18:08 | 60.13310 | 22.53382 | 35094 ft | 434 kts | 257° |
| 2026-05-07 18:08 | 60.12603 | 22.47478 | 35477 ft | 435 kts | 257° |
| 2026-05-07 18:09 | 60.11895 | 22.41582 | 35824 ft | 436 kts | 257° |
| 2026-05-07 18:09 | 60.11182 | 22.35667 | 36162 ft | 436 kts | 257° |
| 2026-05-07 18:09 | 60.10467 | 22.29752 | 36503 ft | 437 kts | 257° |
| 2026-05-07 18:09 | 60.09748 | 22.23828 | 36841 ft | 438 kts | 257° |
| 2026-05-07 18:10 | 60.09025 | 22.17901 | 37178 ft | 438 kts | 257° |
| 2026-05-07 18:10 | 60.08307 | 22.12033 | 37489 ft | 439 kts | 256° |
| 2026-05-07 18:10 | 60.07567 | 22.06011 | 37799 ft | 440 kts | 256° |
| 2026-05-07 18:10 | 60.06833 | 22.00061 | 38070 ft | 441 kts | 256° |
| 2026-05-07 18:11 | 60.06099 | 21.94140 | 38122 ft | 446 kts | 256° |
| 2026-05-07 18:11 | 60.04597 | 21.82091 | 38134 ft | 444 kts | 256° |
| 2026-05-07 18:12 | 60.03102 | 21.70204 | 38152 ft | 438 kts | 256° |
| 2026-05-07 18:12 | 60.01606 | 21.58383 | 38148 ft | 438 kts | 256° |
| 2026-05-07 18:13 | 60.00099 | 21.46568 | 38153 ft | 439 kts | 256° |
| 2026-05-07 18:13 | 59.99114 | 21.34547 | 38153 ft | 439 kts | 265° |
| 2026-05-07 18:14 | 59.98983 | 21.22334 | 38152 ft | 440 kts | 269° |
| 2026-05-07 18:14 | 59.98954 | 21.10091 | 38153 ft | 441 kts | 269° |
| 2026-05-07 18:15 | 59.98903 | 20.97826 | 38151 ft | 442 kts | 269° |
| 2026-05-07 18:15 | 59.98829 | 20.85530 | 38162 ft | 443 kts | 269° |
| 2026-05-07 18:16 | 59.98739 | 20.73212 | 38161 ft | 444 kts | 268° |
| 2026-05-07 18:16 | 59.98637 | 20.60877 | 38151 ft | 444 kts | 268° |
| 2026-05-07 18:17 | 59.98523 | 20.48542 | 38157 ft | 444 kts | 268° |
| 2026-05-07 18:17 | 59.98398 | 20.36193 | 38164 ft | 444 kts | 268° |
| 2026-05-07 18:18 | 59.98262 | 20.23909 | 38176 ft | 444 kts | 268° |
| 2026-05-07 18:18 | 59.98099 | 20.11592 | 38154 ft | 443 kts | 268° |
| 2026-05-07 18:19 | 59.97934 | 19.99298 | 38169 ft | 442 kts | 268° |
| 2026-05-07 18:19 | 59.97765 | 19.87033 | 38157 ft | 442 kts | 268° |
| 2026-05-07 18:20 | 59.97587 | 19.74866 | 38153 ft | 441 kts | 268° |
| 2026-05-07 18:20 | 59.97397 | 19.62652 | 38159 ft | 441 kts | 268° |
| 2026-05-07 18:21 | 59.97194 | 19.50427 | 38172 ft | 440 kts | 268° |
| 2026-05-07 18:21 | 59.96979 | 19.38211 | 38159 ft | 440 kts | 268° |
| 2026-05-07 18:22 | 59.96754 | 19.25993 | 38158 ft | 441 kts | 267° |
| 2026-05-07 18:22 | 59.96517 | 19.13769 | 38160 ft | 441 kts | 267° |
| 2026-05-07 18:23 | 59.96268 | 19.01539 | 38144 ft | 441 kts | 267° |
| 2026-05-07 18:23 | 59.96008 | 18.89311 | 38154 ft | 440 kts | 267° |
| 2026-05-07 18:24 | 59.95737 | 18.77104 | 38172 ft | 440 kts | 267° |
| 2026-05-07 18:24 | 59.95456 | 18.64919 | 38151 ft | 439 kts | 267° |
| 2026-05-07 18:25 | 59.95164 | 18.52770 | 38143 ft | 438 kts | 267° |
| 2026-05-07 18:25 | 59.94864 | 18.40749 | 38151 ft | 437 kts | 267° |
| 2026-05-07 18:26 | 59.94551 | 18.28654 | 38152 ft | 436 kts | 266° |
| 2026-05-07 18:26 | 59.94228 | 18.16590 | 38148 ft | 435 kts | 266° |
| 2026-05-07 18:27 | 59.93895 | 18.04548 | 38155 ft | 435 kts | 266° |
| 2026-05-07 18:27 | 59.93565 | 17.92512 | 38146 ft | 434 kts | 266° |
| 2026-05-07 18:28 | 59.93217 | 17.80509 | 38130 ft | 434 kts | 266° |
| 2026-05-07 18:28 | 59.92848 | 17.68441 | 38134 ft | 433 kts | 266° |
| 2026-05-07 18:29 | 59.92472 | 17.56532 | 38126 ft | 433 kts | 266° |
| 2026-05-07 18:29 | 59.92086 | 17.44577 | 38127 ft | 433 kts | 266° |
| 2026-05-07 18:30 | 59.91688 | 17.32594 | 38138 ft | 433 kts | 266° |
| 2026-05-07 18:30 | 59.91278 | 17.20593 | 38102 ft | 434 kts | 266° |
| 2026-05-07 18:31 | 59.90858 | 17.08588 | 38123 ft | 435 kts | 265° |
| 2026-05-07 18:31 | 59.90426 | 16.96555 | 38129 ft | 436 kts | 265° |
| 2026-05-07 18:32 | 59.89981 | 16.84506 | 38130 ft | 437 kts | 265° |
| 2026-05-07 18:32 | 59.89525 | 16.72438 | 38128 ft | 437 kts | 265° |
| 2026-05-07 18:33 | 59.89137 | 16.62393 | 38121 ft | 438 kts | 265° |
| 2026-05-07 18:33 | 59.88659 | 16.50270 | 38132 ft | 439 kts | 265° |
| 2026-05-07 18:34 | 59.88168 | 16.38141 | 38129 ft | 440 kts | 265° |
| 2026-05-07 18:34 | 59.87667 | 16.26009 | 38129 ft | 440 kts | 265° |
| 2026-05-07 18:35 | 59.87154 | 16.13868 | 38126 ft | 440 kts | 265° |
| 2026-05-07 18:35 | 59.86629 | 16.01729 | 38125 ft | 440 kts | 265° |
| 2026-05-07 18:36 | 59.86093 | 15.89595 | 38132 ft | 441 kts | 264° |
| 2026-05-07 18:36 | 59.85546 | 15.77443 | 38121 ft | 441 kts | 264° |
| 2026-05-07 18:37 | 59.84987 | 15.65297 | 38129 ft | 441 kts | 264° |
| 2026-05-07 18:37 | 59.84417 | 15.53157 | 38129 ft | 441 kts | 264° |
| 2026-05-07 18:38 | 59.83835 | 15.41014 | 38116 ft | 440 kts | 264° |
| 2026-05-07 18:38 | 59.83244 | 15.28886 | 38124 ft | 440 kts | 264° |
| 2026-05-07 18:39 | 59.82641 | 15.16765 | 38130 ft | 441 kts | 264° |
| 2026-05-07 18:39 | 59.82026 | 15.04625 | 38128 ft | 442 kts | 264° |
| 2026-05-07 18:40 | 59.81400 | 14.92486 | 38126 ft | 442 kts | 264° |
| 2026-05-07 18:40 | 59.80764 | 14.80349 | 38128 ft | 442 kts | 264° |
| 2026-05-07 18:41 | 59.80384 | 14.68178 | 38128 ft | 442 kts | 271° |
| 2026-05-07 18:41 | 59.80962 | 14.56019 | 38132 ft | 443 kts | 279° |
| 2026-05-07 18:42 | 59.82184 | 14.44003 | 37832 ft | 448 kts | 281° |
| 2026-05-07 18:42 | 59.82823 | 14.37889 | 37161 ft | 450 kts | 281° |
| 2026-05-07 18:42 | 59.83448 | 14.31862 | 36335 ft | 439 kts | 281° |
| 2026-05-07 18:42 | 59.84047 | 14.26005 | 35592 ft | 425 kts | 281° |
| 2026-05-07 18:43 | 59.84616 | 14.20366 | 34773 ft | 419 kts | 282° |
| 2026-05-07 18:43 | 59.85184 | 14.14675 | 33914 ft | 420 kts | 282° |
| 2026-05-07 18:43 | 59.85748 | 14.08980 | 33067 ft | 418 kts | 282° |
| 2026-05-07 18:43 | 59.86302 | 14.03349 | 32390 ft | 413 kts | 282° |
| 2026-05-07 18:44 | 59.86847 | 13.97772 | 31736 ft | 408 kts | 282° |
| 2026-05-07 18:44 | 59.87384 | 13.92262 | 31103 ft | 403 kts | 282° |
| 2026-05-07 18:44 | 59.87912 | 13.86811 | 30492 ft | 399 kts | 282° |
| 2026-05-07 18:44 | 59.88434 | 13.81410 | 29832 ft | 395 kts | 282° |
| 2026-05-07 18:45 | 59.88948 | 13.76058 | 29165 ft | 391 kts | 282° |
| 2026-05-07 18:45 | 59.89453 | 13.70783 | 28550 ft | 386 kts | 282° |
| 2026-05-07 18:45 | 59.89950 | 13.65569 | 27953 ft | 381 kts | 281° |
| 2026-05-07 18:45 | 59.90438 | 13.60419 | 27375 ft | 376 kts | 281° |
| 2026-05-07 18:46 | 59.90920 | 13.55312 | 26789 ft | 373 kts | 281° |
| 2026-05-07 18:46 | 59.91397 | 13.50249 | 26201 ft | 370 kts | 281° |
| 2026-05-07 18:46 | 59.91867 | 13.45226 | 25659 ft | 367 kts | 281° |
| 2026-05-07 18:46 | 59.92331 | 13.40241 | 25117 ft | 364 kts | 281° |
| 2026-05-07 18:47 | 59.92791 | 13.35287 | 24589 ft | 362 kts | 281° |
| 2026-05-07 18:47 | 59.93246 | 13.30361 | 24057 ft | 361 kts | 281° |
| 2026-05-07 18:47 | 59.93698 | 13.25454 | 23501 ft | 359 kts | 281° |
| 2026-05-07 18:47 | 59.94274 | 13.20618 | 22828 ft | 360 kts | 287° |
| 2026-05-07 18:48 | 59.95152 | 13.15910 | 22277 ft | 364 kts | 291° |
| 2026-05-07 18:48 | 59.96228 | 13.11337 | 21878 ft | 364 kts | 296° |
| 2026-05-07 18:48 | 59.97438 | 13.06910 | 21517 ft | 362 kts | 297° |
| 2026-05-07 18:48 | 59.98664 | 13.02527 | 21189 ft | 360 kts | 297° |
| 2026-05-07 18:49 | 59.99884 | 12.98183 | 20728 ft | 358 kts | 297° |
| 2026-05-07 18:49 | 60.01094 | 12.93861 | 20225 ft | 355 kts | 297° |
| 2026-05-07 18:49 | 60.02288 | 12.89572 | 19709 ft | 352 kts | 297° |
| 2026-05-07 18:49 | 60.03470 | 12.85306 | 19217 ft | 349 kts | 297° |
| 2026-05-07 18:50 | 60.04638 | 12.81072 | 18740 ft | 347 kts | 297° |
| 2026-05-07 18:50 | 60.05795 | 12.76863 | 18233 ft | 345 kts | 296° |
| 2026-05-07 18:50 | 60.06948 | 12.72660 | 17691 ft | 342 kts | 297° |
| 2026-05-07 18:50 | 60.08070 | 12.68555 | 17202 ft | 339 kts | 297° |
| 2026-05-07 18:51 | 60.09195 | 12.64438 | 16724 ft | 336 kts | 297° |
| 2026-05-07 18:51 | 60.10309 | 12.60347 | 16270 ft | 332 kts | 297° |
| 2026-05-07 18:51 | 60.11412 | 12.56295 | 15801 ft | 329 kts | 297° |
| 2026-05-07 18:51 | 60.12502 | 12.52279 | 15341 ft | 327 kts | 297° |
| 2026-05-07 18:52 | 60.13583 | 12.48290 | 14898 ft | 324 kts | 297° |
| 2026-05-07 18:52 | 60.14653 | 12.44333 | 14453 ft | 322 kts | 297° |
| 2026-05-07 18:52 | 60.15722 | 12.40375 | 14013 ft | 323 kts | 297° |
| 2026-05-07 18:52 | 60.16795 | 12.36390 | 13513 ft | 327 kts | 297° |
| 2026-05-07 18:53 | 60.17889 | 12.32322 | 13056 ft | 334 kts | 297° |
| 2026-05-07 18:53 | 60.18992 | 12.28212 | 12578 ft | 334 kts | 297° |
| 2026-05-07 18:53 | 60.20090 | 12.24118 | 12105 ft | 330 kts | 297° |
| 2026-05-07 18:53 | 60.21172 | 12.20080 | 11629 ft | 327 kts | 297° |
| 2026-05-07 18:54 | 60.22243 | 12.16069 | 11145 ft | 324 kts | 297° |
| 2026-05-07 18:54 | 60.23303 | 12.12096 | 10722 ft | 320 kts | 297° |
| 2026-05-07 18:54 | 60.24331 | 12.08237 | 10587 ft | 307 kts | 297° |
| 2026-05-07 18:54 | 60.25319 | 12.04522 | 10458 ft | 295 kts | 297° |
| 2026-05-07 18:55 | 60.26264 | 12.00960 | 10306 ft | 283 kts | 297° |
| 2026-05-07 18:55 | 60.27171 | 11.97537 | 10194 ft | 271 kts | 297° |
| 2026-05-07 18:55 | 60.28037 | 11.94265 | 10077 ft | 259 kts | 297° |
| 2026-05-07 18:55 | 60.28863 | 11.91138 | 9940 ft | 248 kts | 297° |
| 2026-05-07 18:56 | 60.29673 | 11.88068 | 9674 ft | 247 kts | 297° |
| 2026-05-07 18:56 | 60.30487 | 11.84976 | 9395 ft | 253 kts | 297° |
| 2026-05-07 18:56 | 60.31324 | 11.81789 | 9103 ft | 261 kts | 297° |
| 2026-05-07 18:56 | 60.32179 | 11.78533 | 8802 ft | 264 kts | 297° |
| 2026-05-07 18:57 | 60.33032 | 11.75282 | 8494 ft | 260 kts | 297° |
| 2026-05-07 18:57 | 60.33872 | 11.72076 | 8198 ft | 256 kts | 297° |
| 2026-05-07 18:57 | 60.34695 | 11.68929 | 7902 ft | 251 kts | 297° |
| 2026-05-07 18:57 | 60.35503 | 11.65838 | 7624 ft | 247 kts | 297° |
| 2026-05-07 18:58 | 60.36296 | 11.62794 | 7352 ft | 250 kts | 297° |
| 2026-05-07 18:58 | 60.37128 | 11.59599 | 7091 ft | 258 kts | 297° |
| 2026-05-07 18:58 | 60.37973 | 11.56350 | 6793 ft | 263 kts | 297° |
| 2026-05-07 18:58 | 60.38820 | 11.53094 | 6489 ft | 256 kts | 297° |
| 2026-05-07 18:59 | 60.39634 | 11.49956 | 6175 ft | 246 kts | 296° |
| 2026-05-07 18:59 | 60.40400 | 11.47005 | 6036 ft | 237 kts | 296° |
| 2026-05-07 18:59 | 60.41165 | 11.44044 | 5915 ft | 237 kts | 296° |
| 2026-05-07 18:59 | 60.41875 | 11.41057 | 5777 ft | 234 kts | 285° |
| 2026-05-07 19:00 | 60.41883 | 11.37790 | 5393 ft | 235 kts | 254° |
| 2026-05-07 19:00 | 60.41436 | 11.34602 | 5092 ft | 237 kts | 254° |
| 2026-05-07 19:00 | 60.41028 | 11.31371 | 4751 ft | 236 kts | 255° |
| 2026-05-07 19:00 | 60.40630 | 11.28159 | 4416 ft | 234 kts | 255° |
| 2026-05-07 19:01 | 60.40015 | 11.25209 | 4053 ft | 225 kts | 229° |
| 2026-05-07 19:01 | 60.38790 | 11.23520 | 4001 ft | 208 kts | 202° |
| 2026-05-07 19:01 | 60.37416 | 11.22432 | 4012 ft | 214 kts | 199° |
| 2026-05-07 19:01 | 60.36018 | 11.21501 | 3987 ft | 210 kts | 197° |
| 2026-05-07 19:02 | 60.34598 | 11.20657 | 3696 ft | 214 kts | 195° |
| 2026-05-07 19:02 | 60.33205 | 11.19847 | 3399 ft | 201 kts | 195° |
| 2026-05-07 19:02 | 60.31909 | 11.19093 | 3165 ft | 188 kts | 195° |
| 2026-05-07 19:02 | 60.30664 | 11.18369 | 2924 ft | 186 kts | 195° |
| 2026-05-07 19:03 | 60.29436 | 11.17654 | 2637 ft | 179 kts | 195° |
| 2026-05-07 19:03 | 60.28286 | 11.16984 | 2409 ft | 167 kts | 195° |
| 2026-05-07 19:03 | 60.27202 | 11.16354 | 2202 ft | 158 kts | 195° |
| 2026-05-07 19:03 | 60.26191 | 11.15767 | 1974 ft | 143 kts | 195° |
| 2026-05-07 19:04 | 60.25267 | 11.15230 | 1768 ft | 135 kts | 195° |
| 2026-05-07 19:04 | 60.24371 | 11.14713 | 1604 ft | 136 kts | 195° |
| 2026-05-07 19:04 | 60.23442 | 11.14173 | 1393 ft | 139 kts | 195° |
| 2026-05-07 19:04 | 60.22515 | 11.13626 | 1223 ft | 138 kts | 193° |
| 2026-05-07 19:05 | 60.21583 | 11.13098 | 1028 ft | 140 kts | 195° |
| 2026-05-07 19:05 | 60.20655 | 11.12559 | 825 ft | 137 kts | 194° |
| 2026-05-07 19:05 | 60.19737 | 11.12023 | 692 ft | 136 kts | 194° |
| 2026-05-07 19:05 | 60.18960 | 11.11578 | 686 ft | 87 kts | 196° |
| 2026-05-07 19:06 | 60.18593 | 11.11362 | 681 ft | 41 kts | 199° |
| 2026-05-07 19:06 | 60.18444 | 11.11007 | 680 ft | 9 kts | 284° |
| 2026-05-07 19:06 | 60.18462 | 11.10880 | 681 ft | 10 kts | 287° |
| 2026-05-07 19:07 | 60.18500 | 11.10766 | 681 ft | 11 kts | 345° |
| 2026-05-07 19:07 | 60.18575 | 11.10798 | 681 ft | 11 kts | 17° |
| 2026-05-07 19:07 | 60.18653 | 11.10842 | 685 ft | 12 kts | 15° |
| 2026-05-07 19:07 | 60.18730 | 11.10885 | 680 ft | 12 kts | 16° |
| 2026-05-07 19:08 | 60.18843 | 11.10951 | 682 ft | 20 kts | 16° |
| 2026-05-07 19:08 | 60.18975 | 11.11028 | 682 ft | 20 kts | 16° |
| 2026-05-07 19:08 | 60.19109 | 11.11104 | 682 ft | 20 kts | 16° |
| 2026-05-07 19:08 | 60.19228 | 11.11173 | 686 ft | 18 kts | 16° |
| 2026-05-07 19:09 | 60.19341 | 11.11237 | 680 ft | 5 kts | 16° |
| 2026-05-07 19:09 | 60.19375 | 11.11257 | 685 ft | 5 kts | 17° |
| 2026-05-07 19:09 | 60.19413 | 11.11253 | 680 ft | 6 kts | 324° |
| 2026-05-07 19:09 | 60.19429 | 11.11166 | 681 ft | 8 kts | 285° |
| 2026-05-07 19:10 | 60.19446 | 11.11045 | 685 ft | 11 kts | 286° |
| 2026-05-07 19:10 | 60.19469 | 11.10891 | 681 ft | 11 kts | 286° |
| 2026-05-07 19:10 | 60.19488 | 11.10756 | 685 ft | 10 kts | 286° |
| 2026-05-07 19:10 | 60.19509 | 11.10609 | 679 ft | 12 kts | 286° |
| 2026-05-07 19:11 | 60.19526 | 11.10490 | 683 ft | 7 kts | 286° |
| 2026-05-07 19:11 | 60.19534 | 11.10424 | 681 ft | 5 kts | 272° |
| 2026-05-07 19:11 | 60.19503 | 11.10389 | 683 ft | 5 kts | 198° |
| 2026-05-07 19:11 | 60.19478 | 11.10375 | 680 ft | 2 kts | 195° |
| 2026-05-07 19:12 | 60.19463 | 11.10367 | 683 ft | 2 kts | 195° |
| 2026-05-07 19:12 | 60.19456 | 11.10363 | 683 ft | 1 kts | 195° |
| 2026-05-07 19:12 | 60.19452 | 11.10360 | 683 ft | 0 kts | 195° |